sensor_id;sensor_type;location;lat;lon;timestamp;P1;durP1;ratioP1;P2;durP2;ratioP2
10313;SDS011;5202;49.138;10.090;2022-10-31T00:01:32;3.53;;;2.87;;
10313;SDS011;5202;49.138;10.090;2022-10-31T00:04:04;6.43;;;3.13;;
10313;SDS011;5202;49.138;10.090;2022-10-31T00:06:33;5.43;;;3.00;;
10313;SDS011;5202;49.138;10.090;2022-10-31T00:09:02;6.00;;;3.30;;
10313;SDS011;5202;49.138;10.090;2022-10-31T00:11:31;7.93;;;4.20;;
10313;SDS011;5202;49.138;10.090;2022-10-31T00:14:00;8.40;;;4.40;;
10313;SDS011;5202;49.138;10.090;2022-10-31T00:16:28;6.00;;;4.10;;
10313;SDS011;5202;49.138;10.090;2022-10-31T00:18:58;6.40;;;4.23;;
10313;SDS011;5202;49.138;10.090;2022-10-31T00:21:30;5.43;;;4.07;;
10313;SDS011;5202;49.138;10.090;2022-10-31T00:23:59;8.37;;;3.60;;
10313;SDS011;5202;49.138;10.090;2022-10-31T00:26:28;5.03;;;3.40;;
10313;SDS011;5202;49.138;10.090;2022-10-31T00:28:57;7.53;;;3.20;;
10313;SDS011;5202;49.138;10.090;2022-10-31T00:31:26;3.00;;;2.43;;
10313;SDS011;5202;49.138;10.090;2022-10-31T00:33:54;3.10;;;2.73;;
10313;SDS011;5202;49.138;10.090;2022-10-31T00:36:25;3.57;;;2.73;;
10313;SDS011;5202;49.138;10.090;2022-10-31T00:38:55;5.40;;;2.70;;
10313;SDS011;5202;49.138;10.090;2022-10-31T00:41:25;5.27;;;3.53;;
10313;SDS011;5202;49.138;10.090;2022-10-31T00:43:53;5.37;;;4.17;;
10313;SDS011;5202;49.138;10.090;2022-10-31T00:46:22;8.13;;;3.10;;
10313;SDS011;5202;49.138;10.090;2022-10-31T00:48:51;3.37;;;2.57;;
10313;SDS011;5202;49.138;10.090;2022-10-31T00:51:19;6.87;;;3.03;;
10313;SDS011;5202;49.138;10.090;2022-10-31T00:53:47;3.40;;;3.00;;
10313;SDS011;5202;49.138;10.090;2022-10-31T00:56:17;5.30;;;2.77;;
10313;SDS011;5202;49.138;10.090;2022-10-31T00:58:46;4.27;;;3.10;;
10313;SDS011;5202;49.138;10.090;2022-10-31T01:01:14;4.87;;;3.13;;
10313;SDS011;5202;49.138;10.090;2022-10-31T01:03:43;6.20;;;3.37;;
10313;SDS011;5202;49.138;10.090;2022-10-31T01:06:14;4.30;;;3.47;;
10313;SDS011;5202;49.138;10.090;2022-10-31T01:08:43;3.90;;;3.27;;
10313;SDS011;5202;49.138;10.090;2022-10-31T01:11:12;4.03;;;3.37;;
10313;SDS011;5202;49.138;10.090;2022-10-31T01:13:45;4.70;;;3.30;;
10313;SDS011;5202;49.138;10.090;2022-10-31T01:16:15;7.20;;;3.90;;
10313;SDS011;5202;49.138;10.090;2022-10-31T01:18:45;6.40;;;3.60;;
10313;SDS011;5202;49.138;10.090;2022-10-31T01:21:15;9.53;;;3.50;;
10313;SDS011;5202;49.138;10.090;2022-10-31T01:23:47;7.87;;;4.27;;
10313;SDS011;5202;49.138;10.090;2022-10-31T01:26:16;3.40;;;2.80;;
10313;SDS011;5202;49.138;10.090;2022-10-31T01:28:49;2.50;;;2.30;;
10313;SDS011;5202;49.138;10.090;2022-10-31T01:31:21;3.83;;;2.00;;
10313;SDS011;5202;49.138;10.090;2022-10-31T01:33:52;2.00;;;1.90;;
10313;SDS011;5202;49.138;10.090;2022-10-31T01:36:22;2.10;;;1.93;;
10313;SDS011;5202;49.138;10.090;2022-10-31T01:38:53;1.80;;;1.50;;
10313;SDS011;5202;49.138;10.090;2022-10-31T01:41:25;2.10;;;1.90;;
10313;SDS011;5202;49.138;10.090;2022-10-31T01:43:59;2.20;;;2.00;;
10313;SDS011;5202;49.138;10.090;2022-10-31T01:46:29;2.40;;;2.20;;
10313;SDS011;5202;49.138;10.090;2022-10-31T01:49:04;1.60;;;1.50;;
10313;SDS011;5202;49.138;10.090;2022-10-31T01:51:40;1.93;;;1.70;;
10313;SDS011;5202;49.138;10.090;2022-10-31T01:54:14;2.03;;;1.83;;
10313;SDS011;5202;49.138;10.090;2022-10-31T01:56:47;1.70;;;1.60;;
10313;SDS011;5202;49.138;10.090;2022-10-31T01:59:20;1.93;;;1.83;;
10313;SDS011;5202;49.138;10.090;2022-10-31T02:01:52;2.53;;;2.30;;
10313;SDS011;5202;49.138;10.090;2022-10-31T02:04:22;2.27;;;2.00;;
10313;SDS011;5202;49.138;10.090;2022-10-31T02:06:53;3.53;;;2.33;;
10313;SDS011;5202;49.138;10.090;2022-10-31T02:09:26;2.93;;;2.50;;
10313;SDS011;5202;49.138;10.090;2022-10-31T02:11:57;2.03;;;1.87;;
10313;SDS011;5202;49.138;10.090;2022-10-31T02:14:28;4.37;;;1.87;;
10313;SDS011;5202;49.138;10.090;2022-10-31T02:16:58;2.00;;;1.90;;
10313;SDS011;5202;49.138;10.090;2022-10-31T02:19:28;2.97;;;1.83;;
10313;SDS011;5202;49.138;10.090;2022-10-31T02:22:05;2.23;;;2.03;;
10313;SDS011;5202;49.138;10.090;2022-10-31T02:24:44;2.17;;;1.97;;
10313;SDS011;5202;49.138;10.090;2022-10-31T02:27:25;2.43;;;2.17;;
10313;SDS011;5202;49.138;10.090;2022-10-31T02:30:11;2.30;;;2.10;;
10313;SDS011;5202;49.138;10.090;2022-10-31T02:32:45;1.97;;;1.87;;
10313;SDS011;5202;49.138;10.090;2022-10-31T02:35:26;2.43;;;1.90;;
10313;SDS011;5202;49.138;10.090;2022-10-31T02:38:10;2.10;;;1.90;;
10313;SDS011;5202;49.138;10.090;2022-10-31T02:41:03;2.93;;;2.20;;
10313;SDS011;5202;49.138;10.090;2022-10-31T02:43:53;2.13;;;1.90;;
10313;SDS011;5202;49.138;10.090;2022-10-31T02:46:32;1.50;;;1.40;;
10313;SDS011;5202;49.138;10.090;2022-10-31T02:49:10;3.17;;;1.60;;
10313;SDS011;5202;49.138;10.090;2022-10-31T02:51:47;1.87;;;1.77;;
10313;SDS011;5202;49.138;10.090;2022-10-31T02:54:17;2.27;;;2.00;;
10313;SDS011;5202;49.138;10.090;2022-10-31T02:56:51;5.90;;;1.90;;
10313;SDS011;5202;49.138;10.090;2022-10-31T02:59:25;2.10;;;2.00;;
10313;SDS011;5202;49.138;10.090;2022-10-31T03:02:00;1.70;;;1.60;;
10313;SDS011;5202;49.138;10.090;2022-10-31T03:08:27;1.47;;;1.37;;
10313;SDS011;5202;49.138;10.090;2022-10-31T03:11:03;1.53;;;1.40;;
10313;SDS011;5202;49.138;10.090;2022-10-31T03:13:35;1.70;;;1.60;;
10313;SDS011;5202;49.138;10.090;2022-10-31T03:16:13;1.57;;;1.47;;
10313;SDS011;5202;49.138;10.090;2022-10-31T03:18:47;2.30;;;1.77;;
10313;SDS011;5202;49.138;10.090;2022-10-31T03:21:20;1.80;;;1.70;;
10313;SDS011;5202;49.138;10.090;2022-10-31T03:23:52;2.80;;;1.50;;
10313;SDS011;5202;49.138;10.090;2022-10-31T03:26:22;1.83;;;1.73;;
10313;SDS011;5202;49.138;10.090;2022-10-31T03:28:52;1.70;;;1.60;;
10313;SDS011;5202;49.138;10.090;2022-10-31T03:31:26;1.73;;;1.63;;
10313;SDS011;5202;49.138;10.090;2022-10-31T03:33:58;1.73;;;1.63;;
10313;SDS011;5202;49.138;10.090;2022-10-31T03:36:28;1.93;;;1.53;;
10313;SDS011;5202;49.138;10.090;2022-10-31T03:39:01;1.50;;;1.40;;
10313;SDS011;5202;49.138;10.090;2022-10-31T03:41:32;1.70;;;1.60;;
10313;SDS011;5202;49.138;10.090;2022-10-31T03:44:09;1.70;;;1.60;;
10313;SDS011;5202;49.138;10.090;2022-10-31T03:46:46;2.10;;;2.00;;
10313;SDS011;5202;49.138;10.090;2022-10-31T03:49:15;1.70;;;1.60;;
10313;SDS011;5202;49.138;10.090;2022-10-31T03:51:44;4.50;;;1.80;;
10313;SDS011;5202;49.138;10.090;2022-10-31T03:54:20;2.20;;;1.80;;
10313;SDS011;5202;49.138;10.090;2022-10-31T03:56:54;2.63;;;1.67;;
10313;SDS011;5202;49.138;10.090;2022-10-31T03:59:30;1.97;;;1.87;;
10313;SDS011;5202;49.138;10.090;2022-10-31T04:02:05;1.87;;;1.60;;
10313;SDS011;5202;49.138;10.090;2022-10-31T04:04:38;2.00;;;1.80;;
10313;SDS011;5202;49.138;10.090;2022-10-31T04:07:07;1.87;;;1.77;;
10313;SDS011;5202;49.138;10.090;2022-10-31T04:09:40;1.70;;;1.60;;
10313;SDS011;5202;49.138;10.090;2022-10-31T04:12:13;2.07;;;1.63;;
10313;SDS011;5202;49.138;10.090;2022-10-31T04:14:57;1.67;;;1.57;;
10313;SDS011;5202;49.138;10.090;2022-10-31T04:17:27;1.70;;;1.60;;
10313;SDS011;5202;49.138;10.090;2022-10-31T04:20:01;2.33;;;1.80;;
10313;SDS011;5202;49.138;10.090;2022-10-31T04:22:30;2.23;;;1.70;;
10313;SDS011;5202;49.138;10.090;2022-10-31T04:25:00;1.73;;;1.63;;
10313;SDS011;5202;49.138;10.090;2022-10-31T04:27:28;1.80;;;1.67;;
10313;SDS011;5202;49.138;10.090;2022-10-31T04:29:56;1.93;;;1.73;;
10313;SDS011;5202;49.138;10.090;2022-10-31T04:32:26;1.97;;;1.77;;
10313;SDS011;5202;49.138;10.090;2022-10-31T04:34:55;1.97;;;1.70;;
10313;SDS011;5202;49.138;10.090;2022-10-31T04:37:23;1.70;;;1.60;;
10313;SDS011;5202;49.138;10.090;2022-10-31T04:39:51;1.90;;;1.77;;
10313;SDS011;5202;49.138;10.090;2022-10-31T04:42:56;3.00;;;1.60;;
10313;SDS011;5202;49.138;10.090;2022-10-31T04:45:27;1.70;;;1.60;;
10313;SDS011;5202;49.138;10.090;2022-10-31T04:47:55;1.63;;;1.53;;
10313;SDS011;5202;49.138;10.090;2022-10-31T04:50:49;1.83;;;1.70;;
10313;SDS011;5202;49.138;10.090;2022-10-31T04:53:17;3.20;;;1.63;;
10313;SDS011;5202;49.138;10.090;2022-10-31T04:56:06;3.30;;;1.50;;
10313;SDS011;5202;49.138;10.090;2022-10-31T04:58:41;1.70;;;1.60;;
10313;SDS011;5202;49.138;10.090;2022-10-31T05:01:14;2.00;;;1.77;;
10313;SDS011;5202;49.138;10.090;2022-10-31T05:03:44;1.90;;;1.70;;
10313;SDS011;5202;49.138;10.090;2022-10-31T05:06:12;1.70;;;1.60;;
10313;SDS011;5202;49.138;10.090;2022-10-31T05:08:45;1.67;;;1.50;;
10313;SDS011;5202;49.138;10.090;2022-10-31T05:11:14;2.70;;;1.60;;
10313;SDS011;5202;49.138;10.090;2022-10-31T05:13:44;1.50;;;1.40;;
10313;SDS011;5202;49.138;10.090;2022-10-31T05:16:12;7.10;;;1.60;;
10313;SDS011;5202;49.138;10.090;2022-10-31T05:19:10;1.97;;;1.73;;
10313;SDS011;5202;49.138;10.090;2022-10-31T05:22:06;2.00;;;1.80;;
10313;SDS011;5202;49.138;10.090;2022-10-31T05:24:36;1.47;;;1.37;;
10313;SDS011;5202;49.138;10.090;2022-10-31T05:27:05;2.17;;;1.83;;
10313;SDS011;5202;49.138;10.090;2022-10-31T05:29:34;2.83;;;1.73;;
10313;SDS011;5202;49.138;10.090;2022-10-31T05:32:03;2.43;;;1.60;;
10313;SDS011;5202;49.138;10.090;2022-10-31T05:34:49;3.77;;;2.10;;
10313;SDS011;5202;49.138;10.090;2022-10-31T05:37:37;2.50;;;1.60;;
10313;SDS011;5202;49.138;10.090;2022-10-31T05:40:07;1.90;;;1.70;;
10313;SDS011;5202;49.138;10.090;2022-10-31T05:42:38;7.23;;;2.53;;
10313;SDS011;5202;49.138;10.090;2022-10-31T05:45:09;3.07;;;1.80;;
10313;SDS011;5202;49.138;10.090;2022-10-31T05:47:49;1.60;;;1.50;;
10313;SDS011;5202;49.138;10.090;2022-10-31T05:50:41;2.97;;;1.50;;
10313;SDS011;5202;49.138;10.090;2022-10-31T05:53:10;1.83;;;1.60;;
10313;SDS011;5202;49.138;10.090;2022-10-31T05:55:39;1.83;;;1.73;;
10313;SDS011;5202;49.138;10.090;2022-10-31T05:58:11;2.57;;;2.00;;
10313;SDS011;5202;49.138;10.090;2022-10-31T06:00:48;1.70;;;1.60;;
10313;SDS011;5202;49.138;10.090;2022-10-31T06:03:17;1.90;;;1.70;;
10313;SDS011;5202;49.138;10.090;2022-10-31T06:05:48;1.73;;;1.63;;
10313;SDS011;5202;49.138;10.090;2022-10-31T06:08:23;1.60;;;1.50;;
10313;SDS011;5202;49.138;10.090;2022-10-31T06:10:53;1.63;;;1.53;;
10313;SDS011;5202;49.138;10.090;2022-10-31T06:13:44;5.43;;;1.87;;
10313;SDS011;5202;49.138;10.090;2022-10-31T06:16:20;1.70;;;1.60;;
10313;SDS011;5202;49.138;10.090;2022-10-31T06:18:49;1.23;;;1.13;;
10313;SDS011;5202;49.138;10.090;2022-10-31T06:21:18;2.00;;;1.80;;
10313;SDS011;5202;49.138;10.090;2022-10-31T06:23:49;2.70;;;1.47;;
10313;SDS011;5202;49.138;10.090;2022-10-31T06:26:41;1.60;;;1.50;;
10313;SDS011;5202;49.138;10.090;2022-10-31T06:29:10;1.60;;;1.50;;
10313;SDS011;5202;49.138;10.090;2022-10-31T06:31:59;1.77;;;1.67;;
10313;SDS011;5202;49.138;10.090;2022-10-31T06:34:29;1.73;;;1.50;;
10313;SDS011;5202;49.138;10.090;2022-10-31T06:36:58;5.17;;;1.50;;
10313;SDS011;5202;49.138;10.090;2022-10-31T06:39:29;1.60;;;1.50;;
10313;SDS011;5202;49.138;10.090;2022-10-31T06:41:57;1.63;;;1.53;;
10313;SDS011;5202;49.138;10.090;2022-10-31T06:44:26;1.80;;;1.60;;
10313;SDS011;5202;49.138;10.090;2022-10-31T06:47:19;1.80;;;1.60;;
10313;SDS011;5202;49.138;10.090;2022-10-31T06:50:04;2.13;;;1.50;;
10313;SDS011;5202;49.138;10.090;2022-10-31T06:52:34;2.20;;;2.00;;
10313;SDS011;5202;49.138;10.090;2022-10-31T06:55:03;2.00;;;1.50;;
10313;SDS011;5202;49.138;10.090;2022-10-31T06:57:32;1.70;;;1.60;;
10313;SDS011;5202;49.138;10.090;2022-10-31T07:03:05;1.83;;;1.73;;
10313;SDS011;5202;49.138;10.090;2022-10-31T07:05:35;3.70;;;2.70;;
10313;SDS011;5202;49.138;10.090;2022-10-31T07:08:18;2.83;;;2.60;;
10313;SDS011;5202;49.138;10.090;2022-10-31T07:10:50;3.57;;;2.57;;
10313;SDS011;5202;49.138;10.090;2022-10-31T07:13:21;4.03;;;3.50;;
10313;SDS011;5202;49.138;10.090;2022-10-31T07:16:00;4.33;;;3.03;;
10313;SDS011;5202;49.138;10.090;2022-10-31T07:18:34;3.40;;;2.70;;
10313;SDS011;5202;49.138;10.090;2022-10-31T07:21:03;3.57;;;2.80;;
10313;SDS011;5202;49.138;10.090;2022-10-31T07:23:32;3.90;;;2.40;;
10313;SDS011;5202;49.138;10.090;2022-10-31T07:26:20;3.70;;;2.37;;
10313;SDS011;5202;49.138;10.090;2022-10-31T07:28:48;2.53;;;2.33;;
10313;SDS011;5202;49.138;10.090;2022-10-31T07:31:20;3.40;;;2.30;;
10313;SDS011;5202;49.138;10.090;2022-10-31T07:33:52;3.90;;;2.60;;
10313;SDS011;5202;49.138;10.090;2022-10-31T07:36:40;3.83;;;2.57;;
10313;SDS011;5202;49.138;10.090;2022-10-31T07:39:11;6.13;;;2.77;;
10313;SDS011;5202;49.138;10.090;2022-10-31T07:41:40;6.10;;;3.20;;
10313;SDS011;5202;49.138;10.090;2022-10-31T07:47:22;5.43;;;3.30;;
10313;SDS011;5202;49.138;10.090;2022-10-31T07:50:25;5.80;;;3.07;;
10313;SDS011;5202;49.138;10.090;2022-10-31T07:53:34;9.90;;;5.97;;
10313;SDS011;5202;49.138;10.090;2022-10-31T07:56:13;9.77;;;5.27;;
10313;SDS011;5202;49.138;10.090;2022-10-31T07:58:41;7.57;;;4.60;;
10313;SDS011;5202;49.138;10.090;2022-10-31T08:01:10;7.87;;;4.80;;
10313;SDS011;5202;49.138;10.090;2022-10-31T08:03:59;7.77;;;4.50;;
10313;SDS011;5202;49.138;10.090;2022-10-31T08:06:47;9.67;;;7.20;;
10313;SDS011;5202;49.138;10.090;2022-10-31T08:09:25;8.37;;;5.23;;
10313;SDS011;5202;49.138;10.090;2022-10-31T08:11:57;7.70;;;4.83;;
10313;SDS011;5202;49.138;10.090;2022-10-31T08:14:26;11.63;;;5.00;;
10313;SDS011;5202;49.138;10.090;2022-10-31T08:16:54;8.23;;;4.70;;
10313;SDS011;5202;49.138;10.090;2022-10-31T08:19:29;9.03;;;4.47;;
10313;SDS011;5202;49.138;10.090;2022-10-31T08:21:58;8.67;;;4.80;;
10313;SDS011;5202;49.138;10.090;2022-10-31T08:24:27;8.67;;;4.77;;
10313;SDS011;5202;49.138;10.090;2022-10-31T08:26:57;8.57;;;4.93;;
10313;SDS011;5202;49.138;10.090;2022-10-31T08:29:25;11.63;;;4.40;;
10313;SDS011;5202;49.138;10.090;2022-10-31T08:31:53;10.23;;;4.33;;
10313;SDS011;5202;49.138;10.090;2022-10-31T08:34:40;8.67;;;4.40;;
10313;SDS011;5202;49.138;10.090;2022-10-31T08:37:36;10.27;;;4.83;;
10313;SDS011;5202;49.138;10.090;2022-10-31T08:40:05;8.50;;;4.63;;
10313;SDS011;5202;49.138;10.090;2022-10-31T08:42:34;12.73;;;5.07;;
10313;SDS011;5202;49.138;10.090;2022-10-31T08:45:03;8.87;;;4.40;;
10313;SDS011;5202;49.138;10.090;2022-10-31T08:47:32;9.80;;;4.40;;
10313;SDS011;5202;49.138;10.090;2022-10-31T08:50:01;11.13;;;5.40;;
10313;SDS011;5202;49.138;10.090;2022-10-31T08:52:29;6.40;;;4.40;;
10313;SDS011;5202;49.138;10.090;2022-10-31T08:55:19;9.33;;;4.60;;
10313;SDS011;5202;49.138;10.090;2022-10-31T08:58:02;10.03;;;4.57;;
10313;SDS011;5202;49.138;10.090;2022-10-31T09:00:41;9.33;;;4.83;;
10313;SDS011;5202;49.138;10.090;2022-10-31T09:03:15;21.97;;;6.07;;
10313;SDS011;5202;49.138;10.090;2022-10-31T09:05:50;7.67;;;5.10;;
10313;SDS011;5202;49.138;10.090;2022-10-31T09:08:24;6.33;;;5.03;;
10313;SDS011;5202;49.138;10.090;2022-10-31T09:10:56;6.57;;;4.23;;
10313;SDS011;5202;49.138;10.090;2022-10-31T09:13:44;8.17;;;4.47;;
10313;SDS011;5202;49.138;10.090;2022-10-31T09:16:30;12.30;;;5.15;;
10313;SDS011;5202;49.138;10.090;2022-10-31T09:18:59;7.70;;;4.03;;
10313;SDS011;5202;49.138;10.090;2022-10-31T09:21:30;9.88;;;5.43;;
10313;SDS011;5202;49.138;10.090;2022-10-31T09:23:58;6.82;;;4.47;;
10313;SDS011;5202;49.138;10.090;2022-10-31T09:26:28;8.77;;;4.18;;
10313;SDS011;5202;49.138;10.090;2022-10-31T09:29:08;7.97;;;4.68;;
10313;SDS011;5202;49.138;10.090;2022-10-31T09:31:38;11.73;;;5.13;;
10313;SDS011;5202;49.138;10.090;2022-10-31T09:34:25;7.25;;;4.90;;
10313;SDS011;5202;49.138;10.090;2022-10-31T09:37:05;9.90;;;4.68;;
10313;SDS011;5202;49.138;10.090;2022-10-31T09:39:34;9.68;;;4.95;;
10313;SDS011;5202;49.138;10.090;2022-10-31T09:42:19;9.43;;;4.70;;
10313;SDS011;5202;49.138;10.090;2022-10-31T09:45:13;11.10;;;5.35;;
10313;SDS011;5202;49.138;10.090;2022-10-31T09:47:52;11.93;;;4.93;;
10313;SDS011;5202;49.138;10.090;2022-10-31T09:50:57;8.73;;;4.55;;
10313;SDS011;5202;49.138;10.090;2022-10-31T09:53:43;14.43;;;4.95;;
10313;SDS011;5202;49.138;10.090;2022-10-31T09:56:21;11.77;;;4.90;;
10313;SDS011;5202;49.138;10.090;2022-10-31T09:58:56;9.20;;;4.95;;
10313;SDS011;5202;49.138;10.090;2022-10-31T10:01:30;9.77;;;5.30;;
10313;SDS011;5202;49.138;10.090;2022-10-31T10:04:14;9.02;;;5.07;;
10313;SDS011;5202;49.138;10.090;2022-10-31T10:07:06;12.82;;;6.05;;
10313;SDS011;5202;49.138;10.090;2022-10-31T10:09:42;19.58;;;6.53;;
10313;SDS011;5202;49.138;10.090;2022-10-31T10:12:41;14.88;;;6.90;;
10313;SDS011;5202;49.138;10.090;2022-10-31T10:15:43;10.20;;;5.85;;
10313;SDS011;5202;49.138;10.090;2022-10-31T10:18:31;12.00;;;6.53;;
10313;SDS011;5202;49.138;10.090;2022-10-31T10:21:16;12.80;;;7.05;;
10313;SDS011;5202;49.138;10.090;2022-10-31T10:23:56;11.27;;;6.60;;
10313;SDS011;5202;49.138;10.090;2022-10-31T10:26:41;16.13;;;6.00;;
10313;SDS011;5202;49.138;10.090;2022-10-31T10:29:22;12.10;;;6.97;;
10313;SDS011;5202;49.138;10.090;2022-10-31T10:32:04;14.88;;;6.88;;
10313;SDS011;5202;49.138;10.090;2022-10-31T10:34:39;13.52;;;6.97;;
10313;SDS011;5202;49.138;10.090;2022-10-31T10:37:20;14.48;;;6.47;;
10313;SDS011;5202;49.138;10.090;2022-10-31T10:39:54;14.25;;;7.05;;
10313;SDS011;5202;49.138;10.090;2022-10-31T10:42:34;12.32;;;5.82;;
10313;SDS011;5202;49.138;10.090;2022-10-31T10:45:21;12.15;;;6.05;;
10313;SDS011;5202;49.138;10.090;2022-10-31T10:48:11;10.35;;;5.82;;
10313;SDS011;5202;49.138;10.090;2022-10-31T10:50:45;14.20;;;7.22;;
10313;SDS011;5202;49.138;10.090;2022-10-31T10:53:25;16.60;;;7.28;;
10313;SDS011;5202;49.138;10.090;2022-10-31T10:56:15;11.63;;;6.65;;
10313;SDS011;5202;49.138;10.090;2022-10-31T10:58:48;13.15;;;6.75;;
10313;SDS011;5202;49.138;10.090;2022-10-31T11:04:25;16.90;;;6.78;;
10313;SDS011;5202;49.138;10.090;2022-10-31T11:07:00;14.27;;;6.65;;
10313;SDS011;5202;49.138;10.090;2022-10-31T11:09:31;15.70;;;7.10;;
10313;SDS011;5202;49.138;10.090;2022-10-31T11:12:00;12.02;;;6.53;;
10313;SDS011;5202;49.138;10.090;2022-10-31T11:14:36;11.88;;;6.38;;
10313;SDS011;5202;49.138;10.090;2022-10-31T11:17:17;12.65;;;6.70;;
10313;SDS011;5202;49.138;10.090;2022-10-31T11:20:00;11.52;;;6.25;;
10313;SDS011;5202;49.138;10.090;2022-10-31T11:22:32;13.50;;;5.63;;
10313;SDS011;5202;49.138;10.090;2022-10-31T11:25:00;10.57;;;5.68;;
10313;SDS011;5202;49.138;10.090;2022-10-31T11:27:39;13.25;;;5.68;;
10313;SDS011;5202;49.138;10.090;2022-10-31T11:30:09;11.57;;;5.05;;
10313;SDS011;5202;49.138;10.090;2022-10-31T11:32:40;9.73;;;5.15;;
10313;SDS011;5202;49.138;10.090;2022-10-31T11:35:17;10.23;;;5.28;;
10313;SDS011;5202;49.138;10.090;2022-10-31T11:37:48;14.63;;;5.00;;
10313;SDS011;5202;49.138;10.090;2022-10-31T11:40:19;11.15;;;5.38;;
10313;SDS011;5202;49.138;10.090;2022-10-31T11:42:50;11.35;;;4.90;;
10313;SDS011;5202;49.138;10.090;2022-10-31T11:45:27;9.23;;;5.20;;
10313;SDS011;5202;49.138;10.090;2022-10-31T11:48:00;10.30;;;5.65;;
10313;SDS011;5202;49.138;10.090;2022-10-31T11:50:35;13.43;;;5.45;;
10313;SDS011;5202;49.138;10.090;2022-10-31T11:53:11;12.27;;;5.22;;
10313;SDS011;5202;49.138;10.090;2022-10-31T11:55:43;9.50;;;5.50;;
10313;SDS011;5202;49.138;10.090;2022-10-31T11:58:20;11.80;;;4.57;;
10313;SDS011;5202;49.138;10.090;2022-10-31T12:00:50;7.90;;;4.70;;
10313;SDS011;5202;49.138;10.090;2022-10-31T12:03:26;10.68;;;5.30;;
10313;SDS011;5202;49.138;10.090;2022-10-31T12:06:16;17.55;;;5.45;;
10313;SDS011;5202;49.138;10.090;2022-10-31T12:08:50;11.52;;;5.15;;
10313;SDS011;5202;49.138;10.090;2022-10-31T12:11:23;11.48;;;5.80;;
10313;SDS011;5202;49.138;10.090;2022-10-31T12:14:12;11.23;;;5.63;;
10313;SDS011;5202;49.138;10.090;2022-10-31T12:16:53;9.05;;;5.40;;
10313;SDS011;5202;49.138;10.090;2022-10-31T12:19:30;13.10;;;6.60;;
10313;SDS011;5202;49.138;10.090;2022-10-31T12:22:13;12.13;;;6.28;;
10313;SDS011;5202;49.138;10.090;2022-10-31T12:24:55;13.40;;;5.47;;
10313;SDS011;5202;49.138;10.090;2022-10-31T12:27:54;12.27;;;5.65;;
10313;SDS011;5202;49.138;10.090;2022-10-31T12:30:46;11.98;;;5.97;;
10313;SDS011;5202;49.138;10.090;2022-10-31T12:33:32;10.07;;;6.05;;
10313;SDS011;5202;49.138;10.090;2022-10-31T12:36:18;11.38;;;6.07;;
10313;SDS011;5202;49.138;10.090;2022-10-31T12:39:12;13.65;;;6.93;;
10313;SDS011;5202;49.138;10.090;2022-10-31T12:42:01;11.93;;;6.00;;
10313;SDS011;5202;49.138;10.090;2022-10-31T12:44:50;13.35;;;6.22;;
10313;SDS011;5202;49.138;10.090;2022-10-31T12:47:40;13.65;;;5.70;;
10313;SDS011;5202;49.138;10.090;2022-10-31T12:50:29;14.55;;;6.18;;
10313;SDS011;5202;49.138;10.090;2022-10-31T12:53:18;13.38;;;6.05;;
10313;SDS011;5202;49.138;10.090;2022-10-31T12:56:02;12.38;;;5.90;;
10313;SDS011;5202;49.138;10.090;2022-10-31T12:58:49;12.77;;;5.63;;
10313;SDS011;5202;49.138;10.090;2022-10-31T13:01:23;15.05;;;5.50;;
10313;SDS011;5202;49.138;10.090;2022-10-31T13:03:57;13.13;;;5.85;;
10313;SDS011;5202;49.138;10.090;2022-10-31T13:06:33;13.55;;;5.10;;
10313;SDS011;5202;49.138;10.090;2022-10-31T13:09:11;15.07;;;6.22;;
10313;SDS011;5202;49.138;10.090;2022-10-31T13:11:46;11.68;;;5.03;;
10313;SDS011;5202;49.138;10.090;2022-10-31T13:14:23;11.57;;;5.28;;
10313;SDS011;5202;49.138;10.090;2022-10-31T13:16:54;9.77;;;5.00;;
10313;SDS011;5202;49.138;10.090;2022-10-31T13:19:25;8.82;;;5.35;;
10313;SDS011;5202;49.138;10.090;2022-10-31T13:21:58;8.35;;;5.15;;
10313;SDS011;5202;49.138;10.090;2022-10-31T13:24:34;12.85;;;5.25;;
10313;SDS011;5202;49.138;10.090;2022-10-31T13:27:11;13.52;;;5.18;;
10313;SDS011;5202;49.138;10.090;2022-10-31T13:29:49;11.98;;;5.70;;
10313;SDS011;5202;49.138;10.090;2022-10-31T13:32:28;17.85;;;5.70;;
10313;SDS011;5202;49.138;10.090;2022-10-31T13:35:10;10.52;;;6.13;;
10313;SDS011;5202;49.138;10.090;2022-10-31T13:37:47;12.43;;;6.22;;
10313;SDS011;5202;49.138;10.090;2022-10-31T13:40:29;8.82;;;5.88;;
10313;SDS011;5202;49.138;10.090;2022-10-31T13:46:00;14.77;;;5.68;;
10313;SDS011;5202;49.138;10.090;2022-10-31T13:48:36;10.82;;;5.65;;
10313;SDS011;5202;49.138;10.090;2022-10-31T13:51:08;12.90;;;5.60;;
10313;SDS011;5202;49.138;10.090;2022-10-31T13:53:39;13.23;;;5.95;;
10313;SDS011;5202;49.138;10.090;2022-10-31T13:56:15;11.35;;;5.85;;
10313;SDS011;5202;49.138;10.090;2022-10-31T13:59:01;9.77;;;6.20;;
10313;SDS011;5202;49.138;10.090;2022-10-31T14:01:45;12.43;;;5.70;;
10313;SDS011;5202;49.138;10.090;2022-10-31T14:04:18;13.50;;;6.70;;
10313;SDS011;5202;49.138;10.090;2022-10-31T14:06:55;9.88;;;6.63;;
10313;SDS011;5202;49.138;10.090;2022-10-31T14:09:33;13.50;;;6.78;;
10313;SDS011;5202;49.138;10.090;2022-10-31T14:12:05;11.98;;;6.18;;
10313;SDS011;5202;49.138;10.090;2022-10-31T14:14:44;11.27;;;6.50;;
10313;SDS011;5202;49.138;10.090;2022-10-31T14:17:18;13.63;;;7.47;;
10313;SDS011;5202;49.138;10.090;2022-10-31T14:19:56;15.50;;;6.72;;
10313;SDS011;5202;49.138;10.090;2022-10-31T14:22:45;14.52;;;6.47;;
10313;SDS011;5202;49.138;10.090;2022-10-31T14:25:27;12.73;;;6.85;;
10313;SDS011;5202;49.138;10.090;2022-10-31T14:27:59;10.80;;;6.70;;
10313;SDS011;5202;49.138;10.090;2022-10-31T14:30:32;13.65;;;6.65;;
10313;SDS011;5202;49.138;10.090;2022-10-31T14:33:01;18.60;;;7.57;;
10313;SDS011;5202;49.138;10.090;2022-10-31T14:35:46;14.50;;;7.05;;
10313;SDS011;5202;49.138;10.090;2022-10-31T14:38:35;18.05;;;6.95;;
10313;SDS011;5202;49.138;10.090;2022-10-31T14:41:24;12.07;;;7.10;;
10313;SDS011;5202;49.138;10.090;2022-10-31T14:44:15;18.83;;;7.88;;
10313;SDS011;5202;49.138;10.090;2022-10-31T14:47:13;17.48;;;8.10;;
10313;SDS011;5202;49.138;10.090;2022-10-31T14:52:48;15.55;;;7.50;;
10313;SDS011;5202;49.138;10.090;2022-10-31T14:55:20;13.93;;;7.72;;
10313;SDS011;5202;49.138;10.090;2022-10-31T14:57:52;15.90;;;7.03;;
10313;SDS011;5202;49.138;10.090;2022-10-31T15:00:25;12.63;;;6.38;;
10313;SDS011;5202;49.138;10.090;2022-10-31T15:03:01;10.63;;;6.57;;
10313;SDS011;5202;49.138;10.090;2022-10-31T15:06:11;15.13;;;6.85;;
10313;SDS011;5202;49.138;10.090;2022-10-31T15:08:44;12.50;;;7.55;;
10313;SDS011;5202;49.138;10.090;2022-10-31T15:11:14;9.82;;;6.90;;
10313;SDS011;5202;49.138;10.090;2022-10-31T15:13:46;12.07;;;7.80;;
10313;SDS011;5202;49.138;10.090;2022-10-31T15:16:17;13.48;;;7.03;;
10313;SDS011;5202;49.138;10.090;2022-10-31T15:18:52;12.70;;;7.32;;
10313;SDS011;5202;49.138;10.090;2022-10-31T15:21:22;10.55;;;7.63;;
10313;SDS011;5202;49.138;10.090;2022-10-31T15:23:55;14.18;;;7.20;;
10313;SDS011;5202;49.138;10.090;2022-10-31T15:26:29;18.80;;;7.85;;
10313;SDS011;5202;49.138;10.090;2022-10-31T15:29:04;10.35;;;7.57;;
10313;SDS011;5202;49.138;10.090;2022-10-31T15:31:37;12.40;;;7.90;;
10313;SDS011;5202;49.138;10.090;2022-10-31T15:34:16;14.73;;;8.18;;
10313;SDS011;5202;49.138;10.090;2022-10-31T15:36:48;15.90;;;8.40;;
10313;SDS011;5202;49.138;10.090;2022-10-31T15:39:17;14.82;;;8.70;;
10313;SDS011;5202;49.138;10.090;2022-10-31T15:41:48;15.93;;;8.52;;
10313;SDS011;5202;49.138;10.090;2022-10-31T15:44:24;13.70;;;8.77;;
10313;SDS011;5202;49.138;10.090;2022-10-31T15:46:55;17.00;;;9.70;;
10313;SDS011;5202;49.138;10.090;2022-10-31T15:49:28;15.93;;;8.85;;
10313;SDS011;5202;49.138;10.090;2022-10-31T15:52:05;13.18;;;8.93;;
10313;SDS011;5202;49.138;10.090;2022-10-31T15:54:41;16.63;;;8.48;;